createdAt,value
2023-12-03T00:00:40.154Z,0.00
2023-12-03T00:01:40.098Z,0.00
2023-12-03T00:02:40.076Z,0.00
2023-12-03T00:03:40.093Z,0.00
2023-12-03T00:04:41.094Z,0.00
2023-12-03T00:05:40.046Z,0.00
2023-12-03T00:06:41.973Z,0.00
2023-12-03T00:07:40.243Z,0.00
2023-12-03T00:08:47.499Z,0.00
2023-12-03T00:09:41.966Z,0.00
2023-12-03T00:10:39.896Z,0.00
2023-12-03T00:11:40.889Z,0.00
2023-12-03T00:12:39.970Z,0.00
2023-12-03T00:13:39.872Z,0.00
2023-12-03T00:14:39.815Z,0.00
2023-12-03T00:15:39.816Z,0.00
2023-12-03T00:16:39.781Z,0.00
2023-12-03T00:17:39.822Z,0.00
2023-12-03T00:18:39.820Z,0.00
2023-12-03T00:19:39.729Z,0.00
2023-12-03T00:20:39.695Z,0.00
2023-12-03T00:21:39.755Z,0.00
2023-12-03T00:22:39.709Z,0.00
2023-12-03T00:23:39.666Z,0.00
2023-12-03T00:24:39.656Z,0.00
2023-12-03T00:25:39.615Z,0.00
2023-12-03T00:26:39.577Z,0.00
2023-12-03T00:27:39.625Z,0.00
2023-12-03T00:28:39.562Z,0.00
2023-12-03T00:29:39.541Z,0.00
2023-12-03T00:30:39.532Z,0.00
2023-12-03T00:31:39.478Z,0.00
2023-12-03T00:32:39.518Z,0.00
2023-12-03T00:33:39.576Z,0.00
2023-12-03T00:34:39.590Z,0.00
2023-12-03T00:35:39.432Z,0.00
2023-12-03T00:36:39.443Z,0.00
2023-12-03T00:37:39.406Z,0.00
2023-12-03T00:38:39.429Z,0.00
2023-12-03T00:39:39.512Z,0.00
2023-12-03T00:40:39.301Z,0.00
2023-12-03T00:41:39.294Z,0.00
2023-12-03T00:42:39.260Z,0.00
2023-12-03T00:43:39.234Z,0.00
2023-12-03T00:44:39.292Z,0.00
2023-12-03T00:45:39.233Z,0.00
2023-12-03T00:46:39.208Z,0.00
2023-12-03T00:47:39.176Z,0.00
2023-12-03T00:48:39.242Z,0.00
2023-12-03T00:49:41.990Z,0.00
2023-12-03T00:50:39.129Z,0.00
2023-12-03T00:51:39.180Z,0.00
2023-12-03T00:52:39.116Z,0.00
2023-12-03T00:53:39.055Z,0.00
2023-12-03T00:54:39.072Z,0.00
2023-12-03T00:55:39.012Z,0.00
2023-12-03T00:56:38.976Z,0.00
2023-12-03T00:57:38.960Z,0.00
2023-12-03T00:58:38.964Z,0.00
2023-12-03T00:59:38.929Z,0.00
2023-12-03T01:00:39.004Z,0.00
2023-12-03T01:01:38.900Z,0.00
2023-12-03T01:02:38.907Z,0.00
2023-12-03T01:03:38.867Z,0.00
2023-12-03T01:04:38.913Z,0.00
2023-12-03T01:05:38.863Z,0.00
2023-12-03T01:06:38.819Z,0.00
2023-12-03T01:07:38.767Z,0.00
2023-12-03T01:08:38.729Z,0.00
2023-12-03T01:09:38.829Z,0.00
2023-12-03T01:10:38.733Z,0.00
2023-12-03T01:11:38.673Z,0.00
2023-12-03T01:12:38.688Z,0.00
2023-12-03T01:13:38.683Z,0.00
2023-12-03T01:14:38.638Z,0.00
2023-12-03T01:15:38.621Z,0.00
2023-12-03T01:16:38.588Z,0.00
2023-12-03T01:17:38.573Z,0.00
2023-12-03T01:18:38.669Z,0.00
2023-12-03T01:19:38.570Z,0.00
2023-12-03T01:20:38.487Z,0.00
2023-12-03T01:21:38.503Z,0.00
2023-12-03T01:22:38.458Z,0.00
2023-12-03T01:23:38.455Z,0.00
2023-12-03T01:24:38.441Z,0.00
2023-12-03T01:25:38.466Z,0.00
2023-12-03T01:26:38.364Z,0.00
2023-12-03T01:27:38.509Z,0.00
2023-12-03T01:28:38.338Z,0.00
2023-12-03T01:29:38.332Z,0.00
2023-12-03T01:30:38.368Z,0.00
2023-12-03T01:31:38.361Z,0.00
2023-12-03T01:32:38.290Z,0.00
2023-12-03T01:33:38.303Z,0.00
2023-12-03T01:34:38.301Z,0.00
2023-12-03T01:35:38.260Z,0.00
2023-12-03T01:36:38.217Z,0.00
2023-12-03T01:37:38.178Z,0.00
2023-12-03T01:38:38.137Z,0.00
2023-12-03T01:39:38.103Z,0.00
2023-12-03T01:40:38.081Z,0.00
2023-12-03T01:41:38.074Z,0.00
2023-12-03T01:42:38.135Z,0.00
2023-12-03T01:43:38.094Z,0.00
2023-12-03T01:44:38.085Z,0.00
2023-12-03T01:45:38.084Z,0.00
2023-12-03T01:46:37.944Z,0.00
2023-12-03T01:47:37.935Z,0.00
2023-12-03T01:48:37.988Z,0.00
2023-12-03T01:49:37.971Z,0.00
2023-12-03T01:50:37.863Z,0.00
2023-12-03T01:51:37.878Z,0.00
2023-12-03T01:52:37.898Z,0.00
2023-12-03T01:53:37.862Z,0.00
2023-12-03T01:54:37.842Z,0.00
2023-12-03T01:55:37.755Z,0.00
2023-12-03T01:56:37.767Z,0.00
2023-12-03T01:57:37.733Z,0.00
2023-12-03T01:58:37.695Z,0.00
2023-12-03T01:59:38.664Z,0.00
2023-12-03T02:00:39.728Z,0.00
2023-12-03T02:01:38.739Z,0.00
2023-12-03T02:02:37.615Z,0.00
2023-12-03T02:03:37.648Z,0.00
2023-12-03T02:04:37.591Z,0.00
2023-12-03T02:05:37.625Z,0.00
2023-12-03T02:06:37.578Z,0.00
2023-12-03T02:07:37.596Z,0.00
2023-12-03T02:08:37.518Z,0.00
2023-12-03T02:09:37.522Z,0.00
2023-12-03T02:10:37.530Z,0.00
2023-12-03T02:11:37.439Z,0.00
2023-12-03T02:12:37.458Z,0.00
2023-12-03T02:13:37.407Z,0.00
2023-12-03T02:14:37.538Z,0.00
2023-12-03T02:15:37.444Z,0.00
2023-12-03T02:16:37.348Z,0.00
2023-12-03T02:17:37.327Z,0.00
2023-12-03T02:18:37.394Z,0.00
2023-12-03T02:19:37.370Z,0.00
2023-12-03T02:20:37.255Z,0.00
2023-12-03T02:21:37.274Z,0.00
2023-12-03T02:22:37.249Z,0.00
2023-12-03T02:23:37.242Z,0.00
2023-12-03T02:24:37.252Z,0.00
2023-12-03T02:25:37.191Z,0.00
2023-12-03T02:26:37.232Z,0.00
2023-12-03T02:27:37.160Z,0.00
2023-12-03T02:28:37.129Z,0.00
2023-12-03T02:29:37.110Z,0.00
2023-12-03T02:30:37.068Z,0.00
2023-12-03T02:31:37.075Z,0.00
2023-12-03T02:32:37.021Z,0.00
2023-12-03T02:33:37.051Z,0.00
2023-12-03T02:34:37.019Z,0.00
2023-12-03T02:35:36.942Z,0.00
2023-12-03T02:36:36.961Z,0.00
2023-12-03T02:37:36.904Z,0.00
2023-12-03T02:38:36.904Z,0.00
2023-12-03T02:39:36.923Z,0.00
2023-12-03T02:40:36.833Z,0.00
2023-12-03T02:41:36.826Z,0.00
2023-12-03T02:42:36.967Z,0.00
2023-12-03T02:43:36.815Z,0.00
2023-12-03T02:44:37.612Z,0.00
2023-12-03T02:45:36.827Z,0.00
2023-12-03T02:46:36.742Z,0.00
2023-12-03T02:47:36.848Z,0.00
2023-12-03T02:48:36.743Z,0.00
2023-12-03T02:49:36.742Z,0.00
2023-12-03T02:50:36.648Z,0.00
2023-12-03T02:51:36.632Z,0.00
2023-12-03T02:52:36.589Z,0.00
2023-12-03T02:53:36.600Z,0.00
2023-12-03T02:54:36.565Z,0.00
2023-12-03T02:55:36.525Z,0.00
2023-12-03T02:56:36.536Z,0.00
2023-12-03T02:57:36.536Z,0.00
2023-12-03T02:58:36.505Z,0.00
2023-12-03T02:59:36.466Z,0.00
2023-12-03T03:00:36.446Z,0.00
2023-12-03T03:01:36.496Z,0.00
2023-12-03T03:02:36.417Z,0.00
2023-12-03T03:03:36.523Z,0.00
2023-12-03T03:04:36.389Z,0.00
2023-12-03T03:05:36.406Z,0.00
2023-12-03T03:06:36.392Z,0.00
2023-12-03T03:07:36.325Z,0.00
2023-12-03T03:08:36.263Z,0.00
2023-12-03T03:09:36.314Z,0.00
2023-12-03T03:10:36.230Z,0.00
2023-12-03T03:11:36.293Z,0.00
2023-12-03T03:12:36.215Z,0.00
2023-12-03T03:13:36.168Z,0.00
2023-12-03T03:14:36.185Z,0.00
2023-12-03T03:15:36.141Z,0.00
2023-12-03T03:16:36.121Z,0.00
2023-12-03T03:17:36.196Z,0.00
2023-12-03T03:18:36.319Z,0.00
2023-12-03T03:19:36.134Z,0.00
2023-12-03T03:20:36.041Z,0.00
2023-12-03T03:21:36.083Z,0.00
2023-12-03T03:22:35.979Z,0.00
2023-12-03T03:23:35.947Z,0.00
2023-12-03T03:24:35.925Z,0.00
2023-12-03T03:25:35.930Z,0.00
2023-12-03T03:26:35.905Z,0.00
2023-12-03T03:27:35.884Z,0.00
2023-12-03T03:28:35.893Z,0.00
2023-12-03T03:29:35.824Z,0.00
2023-12-03T03:30:35.873Z,0.00
2023-12-03T03:31:35.852Z,0.00
2023-12-03T03:32:35.809Z,0.00
2023-12-03T03:33:35.790Z,0.00
2023-12-03T03:34:35.760Z,0.00
2023-12-03T03:35:35.722Z,0.00
2023-12-03T03:36:35.759Z,0.00
2023-12-03T03:37:35.656Z,0.00
2023-12-03T03:38:35.631Z,0.00
2023-12-03T03:39:35.642Z,0.00
2023-12-03T03:40:35.631Z,0.00
2023-12-03T03:41:35.574Z,0.00
2023-12-03T03:42:35.564Z,0.00
2023-12-03T03:43:35.532Z,0.00
2023-12-03T03:44:35.532Z,0.00
2023-12-03T03:45:35.557Z,0.00
2023-12-03T03:46:35.474Z,0.00
2023-12-03T03:47:35.460Z,0.00
2023-12-03T03:48:35.516Z,0.00
2023-12-03T03:49:35.492Z,0.00
2023-12-03T03:50:35.437Z,0.00
2023-12-03T03:51:35.436Z,0.00
2023-12-03T03:52:35.399Z,0.00
2023-12-03T03:53:35.326Z,0.00
2023-12-03T03:54:35.336Z,0.00
2023-12-03T03:55:35.282Z,0.00
2023-12-03T03:56:35.402Z,0.00
2023-12-03T03:57:35.316Z,0.00
2023-12-03T03:58:35.279Z,0.00
2023-12-03T03:59:35.235Z,0.00
2023-12-03T04:00:35.205Z,0.00
2023-12-03T04:01:35.173Z,0.00
2023-12-03T04:02:35.143Z,0.00
2023-12-03T04:03:35.306Z,0.00
2023-12-03T04:04:35.221Z,0.00
2023-12-03T04:05:35.139Z,0.00
2023-12-03T04:06:35.168Z,0.00
2023-12-03T04:07:35.062Z,0.00
2023-12-03T04:08:35.073Z,0.00
2023-12-03T04:09:35.073Z,0.00
2023-12-03T04:10:34.987Z,0.00
2023-12-03T04:11:34.965Z,0.00
2023-12-03T04:12:35.035Z,0.00
2023-12-03T04:13:34.991Z,0.00
2023-12-03T04:14:35.170Z,0.00
2023-12-03T04:15:34.903Z,0.00
2023-12-03T04:16:34.916Z,0.00
2023-12-03T04:17:34.887Z,0.00
2023-12-03T04:18:37.759Z,0.00
2023-12-03T04:19:35.849Z,0.00
2023-12-03T04:20:34.779Z,0.00
2023-12-03T04:21:34.818Z,0.00
2023-12-03T04:22:34.771Z,0.00
2023-12-03T04:23:34.748Z,0.00
2023-12-03T04:24:34.739Z,0.00
2023-12-03T04:25:34.676Z,0.00
2023-12-03T04:26:34.654Z,0.00
2023-12-03T04:27:34.685Z,0.00
2023-12-03T04:28:34.616Z,0.00
2023-12-03T04:29:34.632Z,0.00
2023-12-03T04:30:34.973Z,0.00
2023-12-03T04:31:34.642Z,0.00
2023-12-03T04:32:34.621Z,0.00
2023-12-03T04:33:34.565Z,0.00
2023-12-03T04:34:34.525Z,0.00
2023-12-03T04:35:34.501Z,0.00
2023-12-03T04:36:34.504Z,0.00
2023-12-03T04:37:34.464Z,0.00
2023-12-03T04:38:34.407Z,0.00
2023-12-03T04:39:34.408Z,0.00
2023-12-03T04:40:34.385Z,0.00
2023-12-03T04:41:34.372Z,0.00
2023-12-03T04:42:34.344Z,0.00
2023-12-03T04:43:34.321Z,0.00
2023-12-03T04:44:34.296Z,0.00
2023-12-03T04:45:34.308Z,0.00
2023-12-03T04:46:34.273Z,0.00
2023-12-03T04:47:34.250Z,0.00
2023-12-03T04:48:34.368Z,0.00
2023-12-03T04:49:34.200Z,0.00
2023-12-03T04:50:34.166Z,0.00
2023-12-03T04:51:34.212Z,0.00
2023-12-03T04:52:34.122Z,0.00
2023-12-03T04:53:34.098Z,0.00
2023-12-03T04:54:34.130Z,0.00
2023-12-03T04:55:34.088Z,0.00
2023-12-03T04:56:34.072Z,0.00
2023-12-03T04:57:34.119Z,0.00
2023-12-03T04:58:33.998Z,0.00
2023-12-03T04:59:33.976Z,0.00
2023-12-03T05:00:34.048Z,0.00
2023-12-03T05:01:33.966Z,0.00
2023-12-03T05:02:33.909Z,0.00
2023-12-03T05:03:34.003Z,0.00
2023-12-03T05:04:33.930Z,0.00
2023-12-03T05:05:33.869Z,0.00
2023-12-03T05:06:33.865Z,0.00
2023-12-03T05:07:33.953Z,0.00
2023-12-03T05:08:33.776Z,0.00
2023-12-03T05:09:33.823Z,0.00
2023-12-03T05:10:33.770Z,0.00
2023-12-03T05:11:33.716Z,0.00
2023-12-03T05:12:33.743Z,0.00
2023-12-03T05:13:33.685Z,0.00
2023-12-03T05:14:33.701Z,0.00
2023-12-03T05:15:33.655Z,0.00
2023-12-03T05:16:33.612Z,0.00
2023-12-03T05:17:33.608Z,0.00
2023-12-03T05:18:33.733Z,0.00
2023-12-03T05:19:33.652Z,0.00
2023-12-03T05:20:33.528Z,0.00
2023-12-03T05:21:33.541Z,0.00
2023-12-03T05:22:33.524Z,0.00
2023-12-03T05:23:33.496Z,0.00
2023-12-03T05:24:33.471Z,0.00
2023-12-03T05:25:33.425Z,0.00
2023-12-03T05:26:33.408Z,0.00
2023-12-03T05:27:33.493Z,0.00
2023-12-03T05:28:33.393Z,0.00
2023-12-03T05:29:33.345Z,0.00
2023-12-03T05:30:33.348Z,0.00
2023-12-03T05:31:33.346Z,0.00
2023-12-03T05:32:33.368Z,0.00
2023-12-03T05:33:33.380Z,0.00
2023-12-03T05:34:33.329Z,0.00
2023-12-03T05:35:33.261Z,0.00
2023-12-03T05:36:33.232Z,0.00
2023-12-03T05:37:33.185Z,0.00
2023-12-03T05:38:33.181Z,0.00
2023-12-03T05:39:33.149Z,0.00
2023-12-03T05:40:33.132Z,0.00
2023-12-03T05:41:33.093Z,0.00
2023-12-03T05:42:33.115Z,0.00
2023-12-03T05:43:33.100Z,0.00
2023-12-03T05:44:33.031Z,0.00
2023-12-03T05:45:33.034Z,0.00
2023-12-03T05:46:33.010Z,0.00
2023-12-03T05:47:33.018Z,0.00
2023-12-03T05:48:33.057Z,0.00
2023-12-03T05:49:33.034Z,0.00
2023-12-03T05:50:32.911Z,0.00
2023-12-03T05:51:32.896Z,0.00
2023-12-03T05:52:32.897Z,0.00
2023-12-03T05:53:32.857Z,0.00
2023-12-03T05:54:32.940Z,0.00
2023-12-03T05:55:32.831Z,0.00
2023-12-03T05:56:32.837Z,0.00
2023-12-03T05:57:32.824Z,0.00
2023-12-03T05:58:32.748Z,0.00
2023-12-03T05:59:32.730Z,0.00
2023-12-03T06:00:32.761Z,0.00
2023-12-03T06:01:32.733Z,0.00
2023-12-03T06:02:32.665Z,0.00
2023-12-03T06:03:32.659Z,0.00
2023-12-03T06:04:32.711Z,0.00
2023-12-03T06:05:32.624Z,0.00
2023-12-03T06:06:32.665Z,0.00
2023-12-03T06:07:32.569Z,0.00
2023-12-03T06:08:32.561Z,0.00
2023-12-03T06:09:32.562Z,0.00
2023-12-03T06:10:32.497Z,0.00
2023-12-03T06:11:32.513Z,0.00
2023-12-03T06:12:32.487Z,0.00
2023-12-03T06:13:32.431Z,0.00
2023-12-03T06:14:32.412Z,0.00
2023-12-03T06:15:32.433Z,0.00
2023-12-03T06:16:32.398Z,0.00
2023-12-03T06:17:32.382Z,0.00
2023-12-03T06:18:32.388Z,0.00
2023-12-03T06:19:32.354Z,0.00
2023-12-03T06:20:32.310Z,0.00
2023-12-03T06:21:32.292Z,0.00
2023-12-03T06:22:32.240Z,0.00
2023-12-03T06:23:32.226Z,0.00
2023-12-03T06:24:32.245Z,0.00
2023-12-03T06:25:32.225Z,0.00
2023-12-03T06:26:32.157Z,0.00
2023-12-03T06:27:32.175Z,0.00
2023-12-03T06:28:32.128Z,0.00
2023-12-03T06:29:32.107Z,0.00
2023-12-03T06:30:32.127Z,0.00
2023-12-03T06:31:32.058Z,0.00
2023-12-03T06:32:32.131Z,0.00
2023-12-03T06:33:32.117Z,0.00
2023-12-03T06:34:32.070Z,0.00
2023-12-03T06:35:32.004Z,0.00
2023-12-03T06:36:32.004Z,0.00
2023-12-03T06:37:31.934Z,0.00
2023-12-03T06:38:31.912Z,0.00
2023-12-03T06:39:31.956Z,0.00
2023-12-03T06:40:31.871Z,0.00
2023-12-03T06:41:31.847Z,0.00
2023-12-03T06:42:31.854Z,0.00
2023-12-03T06:43:31.811Z,0.00
2023-12-03T06:44:38.547Z,0.00
2023-12-03T06:45:32.785Z,0.00
2023-12-03T06:46:31.746Z,0.00
2023-12-03T06:47:31.756Z,0.00
2023-12-03T06:48:31.760Z,0.00
2023-12-03T06:49:31.870Z,0.00
2023-12-03T06:50:31.668Z,0.00
2023-12-03T06:51:31.698Z,0.00
2023-12-03T06:52:31.629Z,0.00
2023-12-03T06:53:31.705Z,0.00
2023-12-03T06:54:31.615Z,0.00
2023-12-03T06:55:31.560Z,0.00
2023-12-03T06:56:31.546Z,0.00
2023-12-03T06:57:31.580Z,0.00
2023-12-03T06:58:31.520Z,0.00
2023-12-03T06:59:31.474Z,0.00
2023-12-03T07:00:31.479Z,0.00
2023-12-03T07:01:31.493Z,0.00
2023-12-03T07:02:31.442Z,5.62
2023-12-03T07:03:31.434Z,5.62
2023-12-03T07:04:32.410Z,5.62
2023-12-03T07:05:31.354Z,5.62
2023-12-03T07:06:31.389Z,5.62
2023-12-03T07:07:32.338Z,5.62
2023-12-03T07:08:31.289Z,5.62
2023-12-03T07:09:38.040Z,5.62
2023-12-03T07:10:32.254Z,5.62
2023-12-03T07:11:31.245Z,11.25
2023-12-03T07:12:31.268Z,11.25
2023-12-03T07:13:31.199Z,11.25
2023-12-03T07:14:31.174Z,11.25
2023-12-03T07:15:31.233Z,11.25
2023-12-03T07:16:31.154Z,11.25
2023-12-03T07:17:31.173Z,11.25
2023-12-03T07:18:31.167Z,16.88
2023-12-03T07:19:31.136Z,16.88
2023-12-03T07:20:31.050Z,16.88
2023-12-03T07:21:31.072Z,16.88
2023-12-03T07:22:30.999Z,16.88
2023-12-03T07:23:30.984Z,16.88
2023-12-03T07:24:30.965Z,22.50
2023-12-03T07:25:30.939Z,22.50
2023-12-03T07:26:30.940Z,22.50
2023-12-03T07:27:30.911Z,22.50
2023-12-03T07:28:30.869Z,22.50
2023-12-03T07:29:30.854Z,28.12
2023-12-03T07:30:30.874Z,28.12
2023-12-03T07:31:30.834Z,28.12
2023-12-03T07:32:30.867Z,33.75
2023-12-03T07:33:30.835Z,33.75
2023-12-03T07:34:30.802Z,33.75
2023-12-03T07:35:30.754Z,39.38
2023-12-03T07:36:30.723Z,39.38
2023-12-03T07:37:30.689Z,39.38
2023-12-03T07:38:30.676Z,45.00
2023-12-03T07:39:30.665Z,45.00
2023-12-03T07:40:30.645Z,50.62
2023-12-03T07:41:30.604Z,50.62
2023-12-03T07:42:30.602Z,50.62
2023-12-03T07:43:30.580Z,56.25
2023-12-03T07:44:30.969Z,56.25
2023-12-03T07:45:30.628Z,61.88
2023-12-03T07:46:30.498Z,61.88
2023-12-03T07:47:30.517Z,67.50
2023-12-03T07:48:30.483Z,67.50
2023-12-03T07:49:30.495Z,67.50
2023-12-03T07:50:30.424Z,67.50
2023-12-03T07:51:30.429Z,67.50
2023-12-03T07:52:30.380Z,73.12
2023-12-03T07:53:30.362Z,73.12
2023-12-03T07:54:30.393Z,78.75
2023-12-03T07:55:30.317Z,78.75
2023-12-03T07:56:30.321Z,78.75
2023-12-03T07:57:30.321Z,78.75
2023-12-03T07:58:30.292Z,78.75
2023-12-03T07:59:30.237Z,84.38
2023-12-03T08:00:30.255Z,84.38
2023-12-03T08:01:30.240Z,84.38
2023-12-03T08:02:30.189Z,90.00
2023-12-03T08:03:30.212Z,90.00
2023-12-03T08:04:30.165Z,95.62
2023-12-03T08:05:30.155Z,95.62
2023-12-03T08:06:30.243Z,95.62
2023-12-03T08:07:30.177Z,95.62
2023-12-03T08:08:31.127Z,101.25
2023-12-03T08:09:30.054Z,101.25
2023-12-03T08:10:30.112Z,101.25
2023-12-03T08:11:30.001Z,101.25
2023-12-03T08:12:30.010Z,101.25
2023-12-03T08:13:29.975Z,101.25
2023-12-03T08:14:29.939Z,106.88
2023-12-03T08:15:29.960Z,112.50
2023-12-03T08:16:29.972Z,112.50
2023-12-03T08:17:29.888Z,112.50
2023-12-03T08:18:29.944Z,118.12
2023-12-03T08:19:30.001Z,118.12
2023-12-03T08:20:29.828Z,123.75
2023-12-03T08:21:29.832Z,123.75
2023-12-03T08:22:29.818Z,129.38
2023-12-03T08:23:29.747Z,129.38
2023-12-03T08:24:29.769Z,135.00
2023-12-03T08:25:29.709Z,135.00
2023-12-03T08:26:29.756Z,135.00
2023-12-03T08:27:29.706Z,135.00
2023-12-03T08:28:29.642Z,140.62
2023-12-03T08:29:29.641Z,146.25
2023-12-03T08:30:29.616Z,146.25
2023-12-03T08:31:29.606Z,146.25
2023-12-03T08:32:29.576Z,151.88
2023-12-03T08:33:29.620Z,151.88
2023-12-03T08:34:29.602Z,146.25
2023-12-03T08:35:29.504Z,151.88
2023-12-03T08:36:29.510Z,157.50
2023-12-03T08:37:29.480Z,163.12
2023-12-03T08:38:29.437Z,163.12
2023-12-03T08:39:29.424Z,168.75
2023-12-03T08:40:29.422Z,168.75
2023-12-03T08:41:29.389Z,168.75
2023-12-03T08:42:29.349Z,168.75
2023-12-03T08:43:29.320Z,163.12
2023-12-03T08:44:29.308Z,163.12
2023-12-03T08:45:29.386Z,157.50
2023-12-03T08:46:29.269Z,163.12
2023-12-03T08:47:29.318Z,168.75
2023-12-03T08:48:29.272Z,168.75
2023-12-03T08:49:29.338Z,168.75
2023-12-03T08:50:29.205Z,174.38
2023-12-03T08:51:29.230Z,174.38
2023-12-03T08:52:29.168Z,180.00
2023-12-03T08:53:29.146Z,180.00
2023-12-03T08:54:29.151Z,180.00
2023-12-03T08:55:29.106Z,180.00
2023-12-03T08:56:29.096Z,185.62
2023-12-03T08:57:29.077Z,191.25
2023-12-03T08:58:29.021Z,191.25
2023-12-03T08:59:29.039Z,191.25
2023-12-03T09:00:29.104Z,196.88
2023-12-03T09:01:28.960Z,196.88
2023-12-03T09:02:28.945Z,196.88
2023-12-03T09:03:29.001Z,202.50
2023-12-03T09:04:28.927Z,202.50
2023-12-03T09:05:28.943Z,202.50
2023-12-03T09:06:28.873Z,208.12
2023-12-03T09:07:28.844Z,208.12
2023-12-03T09:08:28.855Z,208.12
2023-12-03T09:09:28.907Z,208.12
2023-12-03T09:10:29.400Z,213.75
2023-12-03T09:11:28.786Z,213.75
2023-12-03T09:12:28.777Z,219.38
2023-12-03T09:13:28.783Z,219.38
2023-12-03T09:14:28.699Z,219.38
2023-12-03T09:15:28.795Z,219.38
2023-12-03T09:16:28.677Z,219.38
2023-12-03T09:17:28.695Z,225.00
2023-12-03T09:18:28.748Z,225.00
2023-12-03T09:19:28.674Z,225.00
2023-12-03T09:20:28.598Z,230.62
2023-12-03T09:21:28.615Z,230.62
2023-12-03T09:22:28.553Z,230.62
2023-12-03T09:23:28.553Z,230.62
2023-12-03T09:24:28.536Z,225.00
2023-12-03T09:25:29.402Z,225.00
2023-12-03T09:26:28.460Z,225.00
2023-12-03T09:27:28.496Z,230.62
2023-12-03T09:28:28.446Z,236.25
2023-12-03T09:29:28.410Z,236.25
2023-12-03T09:30:28.418Z,241.88
2023-12-03T09:31:28.365Z,247.50
2023-12-03T09:32:28.392Z,253.12
2023-12-03T09:33:28.403Z,258.75
2023-12-03T09:34:28.933Z,258.75
2023-12-03T09:35:28.294Z,258.75
2023-12-03T09:36:28.298Z,258.75
2023-12-03T09:37:28.272Z,253.12
2023-12-03T09:38:28.220Z,253.12
2023-12-03T09:39:28.232Z,253.12
2023-12-03T09:40:28.256Z,253.12
2023-12-03T09:41:28.191Z,247.50
2023-12-03T09:42:28.263Z,241.88
2023-12-03T09:43:28.129Z,241.88
2023-12-03T09:44:28.105Z,247.50
2023-12-03T09:45:28.307Z,258.75
2023-12-03T09:46:28.094Z,264.38
2023-12-03T09:47:28.127Z,270.00
2023-12-03T09:48:28.187Z,275.62
2023-12-03T09:49:28.097Z,281.25
2023-12-03T09:50:28.012Z,281.25
2023-12-03T09:51:28.059Z,286.88
2023-12-03T09:52:27.948Z,286.88
2023-12-03T09:53:27.933Z,292.50
2023-12-03T09:54:27.970Z,292.50
2023-12-03T09:55:27.924Z,292.50
2023-12-03T09:56:27.984Z,298.12
2023-12-03T09:57:27.941Z,298.12
2023-12-03T09:58:27.841Z,298.12
2023-12-03T09:59:27.841Z,298.12
2023-12-03T10:00:27.841Z,298.12
2023-12-03T10:01:27.813Z,298.12
2023-12-03T10:02:27.836Z,298.12
2023-12-03T10:03:27.830Z,298.12
2023-12-03T10:04:27.823Z,298.12
2023-12-03T10:05:27.973Z,292.50
2023-12-03T10:06:27.724Z,286.88
2023-12-03T10:07:27.673Z,286.88
2023-12-03T10:08:27.726Z,292.50
2023-12-03T10:09:27.705Z,303.75
2023-12-03T10:10:27.733Z,309.38
2023-12-03T10:11:27.591Z,309.38
2023-12-03T10:12:27.597Z,309.38
2023-12-03T10:13:27.577Z,309.38
2023-12-03T10:14:27.556Z,309.38
2023-12-03T10:15:27.536Z,315.00
2023-12-03T10:16:27.497Z,320.62
2023-12-03T10:17:27.506Z,326.25
2023-12-03T10:18:27.531Z,331.88
2023-12-03T10:19:27.515Z,337.50
2023-12-03T10:20:27.462Z,343.12
2023-12-03T10:21:27.411Z,343.12
2023-12-03T10:22:27.386Z,348.75
2023-12-03T10:23:27.375Z,354.38
2023-12-03T10:24:27.387Z,354.38
2023-12-03T10:25:27.320Z,348.75
2023-12-03T10:26:27.306Z,343.12
2023-12-03T10:27:28.316Z,337.50
2023-12-03T10:28:27.355Z,331.88
2023-12-03T10:29:27.249Z,326.25
2023-12-03T10:30:27.317Z,326.25
2023-12-03T10:31:27.234Z,331.88
2023-12-03T10:32:27.207Z,337.50
2023-12-03T10:33:27.265Z,348.75
2023-12-03T10:34:27.182Z,360.00
2023-12-03T10:35:27.137Z,371.25
2023-12-03T10:36:27.239Z,382.50
2023-12-03T10:37:27.097Z,399.38
2023-12-03T10:38:27.102Z,410.62
2023-12-03T10:39:27.084Z,416.25
2023-12-03T10:40:27.031Z,416.25
2023-12-03T10:41:27.033Z,416.25
2023-12-03T10:42:27.089Z,421.88
2023-12-03T10:43:27.012Z,433.12
2023-12-03T10:44:26.982Z,450.00
2023-12-03T10:45:26.972Z,461.25
2023-12-03T10:46:26.930Z,466.88
2023-12-03T10:47:26.929Z,478.12
2023-12-03T10:48:26.940Z,489.38
2023-12-03T10:49:27.028Z,517.50
2023-12-03T10:50:26.881Z,534.38
2023-12-03T10:51:26.949Z,551.25
2023-12-03T10:52:26.849Z,562.50
2023-12-03T10:53:26.796Z,568.12
2023-12-03T10:54:26.884Z,573.75
2023-12-03T10:55:26.793Z,579.38
2023-12-03T10:56:26.763Z,585.00
2023-12-03T10:57:26.767Z,590.62
2023-12-03T10:58:26.717Z,607.50
2023-12-03T10:59:26.689Z,630.00
2023-12-03T11:00:26.690Z,646.88
2023-12-03T11:01:26.709Z,652.50
2023-12-03T11:02:26.669Z,652.50
2023-12-03T11:03:26.708Z,652.50
2023-12-03T11:04:26.694Z,646.88
2023-12-03T11:05:26.688Z,646.88
2023-12-03T11:06:26.636Z,646.88
2023-12-03T11:07:26.556Z,641.25
2023-12-03T11:08:26.559Z,624.38
2023-12-03T11:09:26.603Z,601.88
2023-12-03T11:10:26.496Z,573.75
2023-12-03T11:11:26.501Z,551.25
2023-12-03T11:12:26.469Z,545.62
2023-12-03T11:13:32.454Z,545.62
2023-12-03T11:14:28.423Z,551.25
2023-12-03T11:15:26.514Z,551.25
2023-12-03T11:16:26.403Z,551.25
2023-12-03T11:17:26.402Z,551.25
2023-12-03T11:18:26.504Z,545.62
2023-12-03T11:19:26.409Z,534.38
2023-12-03T11:20:26.342Z,528.75
2023-12-03T11:21:26.422Z,523.12
2023-12-03T11:22:26.267Z,523.12
2023-12-03T11:23:26.248Z,523.12
2023-12-03T11:24:26.292Z,523.12
2023-12-03T11:25:26.237Z,523.12
2023-12-03T11:26:26.195Z,511.88
2023-12-03T11:27:26.205Z,500.62
2023-12-03T11:28:26.154Z,495.00
2023-12-03T11:29:26.158Z,489.38
2023-12-03T11:30:26.204Z,483.75
2023-12-03T11:31:26.111Z,483.75
2023-12-03T11:32:32.524Z,478.12
2023-12-03T11:33:27.219Z,483.75
2023-12-03T11:34:26.139Z,483.75
2023-12-03T11:35:26.021Z,489.38
2023-12-03T11:36:26.045Z,495.00
2023-12-03T11:37:26.039Z,500.62
2023-12-03T11:38:25.966Z,500.62
2023-12-03T11:39:25.996Z,506.25
2023-12-03T11:40:25.930Z,506.25
2023-12-03T11:41:25.958Z,506.25
2023-12-03T11:42:25.947Z,506.25
2023-12-03T11:43:25.925Z,506.25
2023-12-03T11:44:25.857Z,500.62
2023-12-03T11:45:26.108Z,500.62
2023-12-03T11:46:26.849Z,500.62
2023-12-03T11:47:25.816Z,500.62
2023-12-03T11:48:25.978Z,495.00
2023-12-03T11:49:26.903Z,489.38
2023-12-03T11:50:25.749Z,489.38
2023-12-03T11:51:25.758Z,483.75
2023-12-03T11:52:25.728Z,472.50
2023-12-03T11:53:25.827Z,466.88
2023-12-03T11:54:25.690Z,466.88
2023-12-03T11:55:25.673Z,461.25
2023-12-03T11:56:26.174Z,461.25
2023-12-03T11:57:25.749Z,466.88
2023-12-03T11:58:25.642Z,466.88
2023-12-03T11:59:25.614Z,472.50
2023-12-03T12:00:25.688Z,478.12
2023-12-03T12:01:25.561Z,478.12
2023-12-03T12:02:25.613Z,478.12
2023-12-03T12:03:25.574Z,483.75
2023-12-03T12:04:25.500Z,489.38
2023-12-03T12:05:25.502Z,489.38
2023-12-03T12:06:25.492Z,495.00
2023-12-03T12:07:25.505Z,500.62
2023-12-03T12:08:25.431Z,511.88
2023-12-03T12:09:25.458Z,523.12
2023-12-03T12:10:25.398Z,528.75
2023-12-03T12:11:25.468Z,528.75
2023-12-03T12:12:25.425Z,534.38
2023-12-03T12:13:25.367Z,534.38
2023-12-03T12:14:25.325Z,540.00
2023-12-03T12:15:25.357Z,545.62
2023-12-03T12:16:25.308Z,556.88
2023-12-03T12:17:25.261Z,568.12
2023-12-03T12:18:25.677Z,568.12
2023-12-03T12:19:25.313Z,579.38
2023-12-03T12:20:25.306Z,585.00
2023-12-03T12:21:26.075Z,601.88
2023-12-03T12:22:25.272Z,607.50
2023-12-03T12:23:25.290Z,596.25
2023-12-03T12:24:25.972Z,596.25
2023-12-03T12:25:25.268Z,601.88
2023-12-03T12:26:25.129Z,596.25
2023-12-03T12:27:25.096Z,573.75
2023-12-03T12:28:25.061Z,545.62
2023-12-03T12:29:25.410Z,556.88
2023-12-03T12:30:33.744Z,506.25
2023-12-03T12:31:27.078Z,461.25
2023-12-03T12:32:32.419Z,433.12
2023-12-03T12:33:26.032Z,421.88
2023-12-03T12:34:25.058Z,405.00
2023-12-03T12:35:24.958Z,393.75
2023-12-03T12:36:25.159Z,388.12
2023-12-03T12:37:24.908Z,405.00
2023-12-03T12:38:25.905Z,405.00
2023-12-03T12:39:24.899Z,399.38
2023-12-03T12:40:26.363Z,388.12
2023-12-03T12:41:24.821Z,382.50
2023-12-03T12:42:24.818Z,382.50
2023-12-03T12:43:24.874Z,382.50
2023-12-03T12:44:24.806Z,376.88
2023-12-03T12:45:24.795Z,376.88
2023-12-03T12:46:24.736Z,382.50
2023-12-03T12:47:24.795Z,382.50
2023-12-03T12:48:25.262Z,382.50
2023-12-03T12:49:24.818Z,382.50
2023-12-03T12:50:24.868Z,376.88
2023-12-03T12:51:24.666Z,371.25
2023-12-03T12:52:24.625Z,365.62
2023-12-03T12:53:24.628Z,360.00
2023-12-03T12:54:24.689Z,354.38
2023-12-03T12:55:24.673Z,348.75
2023-12-03T12:56:24.572Z,354.38
2023-12-03T12:57:24.539Z,348.75